createdAt,value
2022-10-15T00:01:08.283Z,17.90
2022-10-15T00:03:40.812Z,17.90
2022-10-15T00:06:10.938Z,17.90
2022-10-15T00:08:39.588Z,17.90
2022-10-15T00:11:27.829Z,17.90
2022-10-15T00:13:57.462Z,17.90
2022-10-15T00:16:26.949Z,17.90
2022-10-15T00:18:57.457Z,17.90
2022-10-15T00:21:25.660Z,17.90
2022-10-15T00:23:53.189Z,17.90
2022-10-15T00:26:26.929Z,17.90
2022-10-15T00:28:54.875Z,17.90
2022-10-15T00:31:26.546Z,17.90
2022-10-15T00:33:57.090Z,17.90
2022-10-15T00:36:28.640Z,17.90
2022-10-15T00:38:56.078Z,17.90
2022-10-15T00:41:26.505Z,17.90
2022-10-15T00:43:59.769Z,18.00
2022-10-15T00:46:33.672Z,17.90
2022-10-15T00:49:22.069Z,17.90
2022-10-15T00:52:01.030Z,17.90
2022-10-15T00:54:33.380Z,17.90
2022-10-15T00:57:01.569Z,17.90
2022-10-15T00:59:31.521Z,17.90
2022-10-15T01:02:01.269Z,17.90
2022-10-15T01:04:30.040Z,18.00
2022-10-15T01:06:57.727Z,18.00
2022-10-15T01:09:25.578Z,17.90
2022-10-15T01:11:55.328Z,17.90
2022-10-15T01:14:47.529Z,17.90
2022-10-15T01:17:20.564Z,17.90
2022-10-15T01:20:06.460Z,17.90
2022-10-15T01:23:07.999Z,17.90
2022-10-15T01:25:53.682Z,17.90
2022-10-15T01:28:48.595Z,17.90
2022-10-15T01:31:34.408Z,17.90
2022-10-15T01:37:13.340Z,18.00
2022-10-15T01:39:48.329Z,17.90
2022-10-15T01:42:27.947Z,17.90
2022-10-15T01:45:03.605Z,17.90
2022-10-15T01:47:57.910Z,17.90
2022-10-15T01:50:28.119Z,17.90
2022-10-15T01:52:57.312Z,17.90
2022-10-15T01:55:27.062Z,17.90
2022-10-15T01:57:58.379Z,17.90
2022-10-15T02:00:26.138Z,17.90
2022-10-15T02:02:53.429Z,18.00
2022-10-15T02:05:27.039Z,18.00
2022-10-15T02:08:01.079Z,18.00
2022-10-15T02:10:39.944Z,18.00
2022-10-15T02:13:14.499Z,18.00
2022-10-15T02:16:06.920Z,18.00
2022-10-15T02:18:45.999Z,18.00
2022-10-15T02:21:37.199Z,17.90
2022-10-15T02:24:29.930Z,17.90
2022-10-15T02:26:59.441Z,17.90
2022-10-15T02:29:31.880Z,18.00
2022-10-15T02:32:01.309Z,18.00
2022-10-15T02:34:33.924Z,18.00
2022-10-15T02:37:06.349Z,18.00
2022-10-15T02:39:34.783Z,18.10
2022-10-15T02:42:04.340Z,18.10
2022-10-15T02:44:33.131Z,18.10
2022-10-15T02:47:01.948Z,18.10
2022-10-15T02:49:29.398Z,18.20
2022-10-15T02:51:56.879Z,18.10
2022-10-15T02:54:24.213Z,18.10
2022-10-15T02:56:51.569Z,18.20
2022-10-15T02:59:22.290Z,18.10
2022-10-15T03:01:50.790Z,18.10
2022-10-15T03:04:18.588Z,18.20
2022-10-15T03:06:46.168Z,18.20
2022-10-15T03:09:14.975Z,18.10
2022-10-15T03:11:42.310Z,18.10
2022-10-15T03:14:09.810Z,18.20
2022-10-15T03:16:37.192Z,18.20
2022-10-15T03:19:05.199Z,18.20
2022-10-15T03:21:32.729Z,18.20
2022-10-15T03:24:07.773Z,18.20
2022-10-15T03:26:35.479Z,18.20
2022-10-15T03:29:03.321Z,18.20
2022-10-15T03:31:38.790Z,18.30
2022-10-15T03:34:06.841Z,18.30
2022-10-15T03:36:35.269Z,18.30
2022-10-15T03:39:06.609Z,18.30
2022-10-15T03:41:34.225Z,18.20
2022-10-15T03:44:02.821Z,18.20
2022-10-15T03:46:32.119Z,18.20
2022-10-15T03:49:01.329Z,18.20
2022-10-15T03:51:31.388Z,18.20
2022-10-15T03:54:05.829Z,18.30
2022-10-15T03:56:41.210Z,18.20
2022-10-15T03:59:22.879Z,18.30
2022-10-15T04:01:57.569Z,18.30
2022-10-15T04:04:25.488Z,18.30
2022-10-15T04:06:52.898Z,18.20
2022-10-15T04:09:20.568Z,18.30
2022-10-15T04:11:52.078Z,18.40
2022-10-15T04:14:20.448Z,18.30
2022-10-15T04:16:47.774Z,18.40
2022-10-15T04:19:20.114Z,18.30
2022-10-15T04:21:58.283Z,18.30
2022-10-15T04:24:33.079Z,18.40
2022-10-15T04:27:00.463Z,18.40
2022-10-15T04:29:27.893Z,18.30
2022-10-15T04:32:07.253Z,18.30
2022-10-15T04:34:34.714Z,18.30
2022-10-15T04:37:02.680Z,18.40
2022-10-15T04:39:30.272Z,18.40
2022-10-15T04:41:57.566Z,18.40
2022-10-15T04:44:28.086Z,18.40
2022-10-15T04:46:58.184Z,18.40
2022-10-15T04:49:40.563Z,18.40
2022-10-15T04:52:22.863Z,18.40
2022-10-15T04:54:58.083Z,18.40
2022-10-15T04:57:27.297Z,18.30
2022-10-15T04:59:57.728Z,18.40
2022-10-15T05:02:28.629Z,18.40
2022-10-15T05:05:09.743Z,18.40
2022-10-15T05:07:47.373Z,18.40
2022-10-15T05:10:15.591Z,18.40
2022-10-15T05:12:43.255Z,18.40
2022-10-15T05:15:11.582Z,18.40
2022-10-15T05:17:38.994Z,18.30
2022-10-15T05:20:09.143Z,18.40
2022-10-15T05:22:36.993Z,18.40
2022-10-15T05:25:04.673Z,18.40
2022-10-15T05:27:33.774Z,18.30
2022-10-15T05:30:02.977Z,18.40
2022-10-15T05:32:38.794Z,18.30
2022-10-15T05:35:09.564Z,18.30
2022-10-15T05:37:53.003Z,18.30
2022-10-15T05:40:22.065Z,18.40
2022-10-15T05:43:05.785Z,18.40
2022-10-15T05:45:33.163Z,18.30
2022-10-15T05:48:05.441Z,18.30
2022-10-15T05:50:32.993Z,18.30
2022-10-15T05:53:02.693Z,18.30
2022-10-15T05:55:40.593Z,18.30
2022-10-15T05:58:08.318Z,18.30
2022-10-15T06:00:36.525Z,18.30
2022-10-15T06:03:03.873Z,18.30
2022-10-15T06:05:32.750Z,18.30
2022-10-15T06:08:00.103Z,18.30
2022-10-15T06:10:28.719Z,18.30
2022-10-15T06:12:56.183Z,18.30
2022-10-15T06:15:23.452Z,18.30
2022-10-15T06:17:54.453Z,18.30
2022-10-15T06:20:21.894Z,18.30
2022-10-15T06:22:49.193Z,18.30
2022-10-15T06:25:16.753Z,18.30
2022-10-15T06:27:44.062Z,18.30
2022-10-15T06:30:11.695Z,18.30
2022-10-15T06:32:38.965Z,18.30
2022-10-15T06:35:06.865Z,18.20
2022-10-15T06:37:35.274Z,18.20
2022-10-15T06:40:02.622Z,18.30
2022-10-15T06:42:29.981Z,18.20
2022-10-15T06:44:57.294Z,18.20
2022-10-15T06:47:24.977Z,18.20
2022-10-15T06:49:52.743Z,18.20
2022-10-15T06:52:20.874Z,18.20
2022-10-15T06:54:48.193Z,18.20
2022-10-15T06:57:15.593Z,18.20
2022-10-15T06:59:43.093Z,18.20
2022-10-15T07:02:11.533Z,18.20
2022-10-15T07:04:39.003Z,18.20
2022-10-15T07:07:06.404Z,18.20
2022-10-15T07:09:35.460Z,18.20
2022-10-15T07:12:03.834Z,18.30
2022-10-15T07:14:31.583Z,18.30
2022-10-15T07:17:00.095Z,18.30
2022-10-15T07:19:29.376Z,18.20
2022-10-15T07:21:57.113Z,18.20
2022-10-15T07:24:24.434Z,18.20
2022-10-15T07:26:51.893Z,18.20
2022-10-15T07:29:19.224Z,18.20
2022-10-15T07:31:47.142Z,18.20
2022-10-15T07:34:17.085Z,18.20
2022-10-15T07:36:44.432Z,18.30
2022-10-15T07:39:11.964Z,18.40
2022-10-15T07:41:54.303Z,18.40
2022-10-15T07:44:24.654Z,18.50
2022-10-15T07:46:51.973Z,18.50
2022-10-15T07:49:19.333Z,18.50
2022-10-15T07:51:47.323Z,18.50
2022-10-15T07:54:14.663Z,18.50
2022-10-15T07:56:42.005Z,18.50
2022-10-15T07:59:09.598Z,18.50
2022-10-15T08:01:36.912Z,18.50
2022-10-15T08:04:04.683Z,18.60
2022-10-15T08:06:33.135Z,18.60
2022-10-15T08:09:00.474Z,18.50
2022-10-15T08:11:29.643Z,18.60
2022-10-15T08:13:56.976Z,18.50
2022-10-15T08:16:24.613Z,18.50
2022-10-15T08:18:59.463Z,18.60
2022-10-15T08:21:27.183Z,18.60
2022-10-15T08:23:54.533Z,18.60
2022-10-15T08:26:30.447Z,18.60
2022-10-15T08:28:57.934Z,18.60
2022-10-15T08:31:25.273Z,18.60
2022-10-15T08:33:52.734Z,18.60
2022-10-15T08:36:20.733Z,18.60
2022-10-15T08:38:48.673Z,18.70
2022-10-15T08:41:46.263Z,18.70
2022-10-15T08:44:34.682Z,18.80
2022-10-15T08:47:26.485Z,18.80
2022-10-15T08:50:16.855Z,18.80
2022-10-15T08:52:47.372Z,18.80
2022-10-15T08:55:21.412Z,18.80
2022-10-15T08:58:25.915Z,18.80
2022-10-15T09:00:54.863Z,18.90
2022-10-15T09:03:39.423Z,18.90
2022-10-15T09:06:31.003Z,18.90
2022-10-15T09:09:13.313Z,18.90
2022-10-15T09:11:59.493Z,18.90
2022-10-15T09:14:36.404Z,19.00
2022-10-15T09:17:15.793Z,19.00
2022-10-15T09:19:44.853Z,19.00
2022-10-15T09:22:19.032Z,19.00
2022-10-15T09:24:47.024Z,19.10
2022-10-15T09:27:24.741Z,19.10
2022-10-15T09:30:17.533Z,19.10
2022-10-15T09:33:00.413Z,19.10
2022-10-15T09:35:36.853Z,19.10
2022-10-15T09:38:13.373Z,19.20
2022-10-15T09:41:01.917Z,19.10
2022-10-15T09:43:35.966Z,19.20
2022-10-15T09:46:04.564Z,19.10
2022-10-15T09:49:09.610Z,19.10
2022-10-15T09:51:49.553Z,19.20
2022-10-15T09:55:09.933Z,19.20
2022-10-15T09:57:38.792Z,19.20
2022-10-15T10:00:10.865Z,19.20
2022-10-15T10:02:41.335Z,19.20
2022-10-15T10:05:28.994Z,19.30
2022-10-15T10:11:07.593Z,19.20
2022-10-15T10:13:50.921Z,19.20
2022-10-15T10:16:20.247Z,19.30
2022-10-15T10:19:14.707Z,19.30
2022-10-15T10:21:43.498Z,19.30
2022-10-15T10:24:30.734Z,19.30
2022-10-15T10:26:59.219Z,19.40
2022-10-15T10:29:34.268Z,19.40
2022-10-15T10:32:12.417Z,19.50
2022-10-15T10:34:43.227Z,19.40
2022-10-15T10:37:11.589Z,19.40
2022-10-15T10:39:38.937Z,19.40
2022-10-15T10:42:08.647Z,19.40
2022-10-15T10:44:41.888Z,19.40
2022-10-15T10:47:13.609Z,19.50
2022-10-15T10:49:52.661Z,19.50
2022-10-15T10:52:37.560Z,19.50
2022-10-15T10:55:10.755Z,19.50
2022-10-15T10:57:59.638Z,19.70
2022-10-15T11:00:38.876Z,19.80
2022-10-15T11:03:11.737Z,19.90
2022-10-15T11:05:40.857Z,19.90
2022-10-15T11:08:20.517Z,19.90
2022-10-15T11:11:07.959Z,19.90
2022-10-15T11:13:41.389Z,19.90
2022-10-15T11:16:38.638Z,20.00
2022-10-15T11:19:18.738Z,19.90
2022-10-15T11:22:10.173Z,19.90
2022-10-15T11:25:06.632Z,20.00
2022-10-15T11:27:55.148Z,20.00
2022-10-15T11:30:53.221Z,20.10
2022-10-15T11:33:29.348Z,20.20
2022-10-15T11:36:34.646Z,20.20
2022-10-15T11:39:26.195Z,20.30
2022-10-15T11:42:08.137Z,20.50
2022-10-15T11:44:44.358Z,20.40
2022-10-15T11:47:25.587Z,20.30
2022-10-15T11:50:14.872Z,20.30
2022-10-15T11:53:15.628Z,20.20
2022-10-15T11:55:55.147Z,20.20
2022-10-15T11:58:37.897Z,20.20
2022-10-15T12:01:21.373Z,20.20
2022-10-15T12:03:59.760Z,20.30
2022-10-15T12:06:31.478Z,20.30
2022-10-15T12:09:01.577Z,20.30
2022-10-15T12:11:44.439Z,20.40
2022-10-15T12:14:19.308Z,20.40
2022-10-15T12:17:11.046Z,20.40
2022-10-15T12:19:45.980Z,20.50
2022-10-15T12:22:13.357Z,20.50
2022-10-15T12:24:48.497Z,20.50
2022-10-15T12:27:17.109Z,20.60
2022-10-15T12:29:45.068Z,20.70
2022-10-15T12:32:27.637Z,20.80
2022-10-15T12:34:59.907Z,20.70
2022-10-15T12:37:30.146Z,20.60
2022-10-15T12:40:23.179Z,20.60
2022-10-15T12:42:56.337Z,20.50
2022-10-15T12:45:40.229Z,20.50
2022-10-15T12:48:35.778Z,20.50
2022-10-15T12:51:21.652Z,20.50
2022-10-15T12:53:54.727Z,20.50
2022-10-15T12:56:25.085Z,20.40
2022-10-15T13:01:43.117Z,20.40
2022-10-15T13:04:10.679Z,20.40
2022-10-15T13:06:40.337Z,20.40
2022-10-15T13:09:10.517Z,20.40
2022-10-15T13:11:46.116Z,20.40
2022-10-15T13:14:18.258Z,20.40
2022-10-15T13:16:47.247Z,20.40
2022-10-15T13:19:22.668Z,20.50
2022-10-15T13:21:57.647Z,20.50
2022-10-15T13:24:30.588Z,20.50
2022-10-15T13:27:00.667Z,20.70
2022-10-15T13:29:29.070Z,20.70
2022-10-15T13:31:58.178Z,20.80
2022-10-15T13:34:35.770Z,20.80
2022-10-15T13:37:04.852Z,20.90
2022-10-15T13:39:40.240Z,20.90
2022-10-15T13:42:21.990Z,20.90
2022-10-15T13:45:05.467Z,21.00
2022-10-15T13:47:35.774Z,21.00
2022-10-15T13:50:28.150Z,21.00
2022-10-15T13:53:20.158Z,20.90
2022-10-15T13:55:52.798Z,20.90
2022-10-15T13:58:30.357Z,20.80
2022-10-15T14:01:03.479Z,20.70
2022-10-15T14:03:36.377Z,20.80
2022-10-15T14:06:23.078Z,20.80
2022-10-15T14:08:52.978Z,20.80
2022-10-15T14:11:21.049Z,20.80
2022-10-15T14:13:59.199Z,20.70
2022-10-15T14:16:46.429Z,20.70
2022-10-15T14:19:19.707Z,20.70
2022-10-15T14:21:48.821Z,20.70
2022-10-15T14:24:21.249Z,20.70
2022-10-15T14:26:49.327Z,20.80
2022-10-15T14:29:28.158Z,20.80
2022-10-15T14:31:56.187Z,20.90
2022-10-15T14:34:39.967Z,20.90
2022-10-15T14:37:28.657Z,20.90
2022-10-15T14:40:11.297Z,20.90
2022-10-15T14:42:43.880Z,20.90
2022-10-15T14:45:19.107Z,21.00
2022-10-15T14:47:49.087Z,21.00
2022-10-15T14:50:17.987Z,20.90
2022-10-15T14:52:50.717Z,20.90
2022-10-15T14:55:23.956Z,20.90
2022-10-15T14:57:52.587Z,20.90
2022-10-15T15:00:34.208Z,20.80
2022-10-15T15:03:05.404Z,20.90
2022-10-15T15:05:50.757Z,20.90
2022-10-15T15:08:18.038Z,20.80
2022-10-15T15:10:46.128Z,20.80
2022-10-15T15:13:23.466Z,20.80
2022-10-15T15:15:50.997Z,20.80
2022-10-15T15:18:18.916Z,20.80
2022-10-15T15:20:48.434Z,20.70
2022-10-15T15:23:20.207Z,20.80
2022-10-15T15:25:47.864Z,20.80
2022-10-15T15:28:17.377Z,20.80
2022-10-15T15:36:20.628Z,20.80
2022-10-15T15:38:50.964Z,20.70
2022-10-15T15:41:20.543Z,20.80
2022-10-15T15:43:48.207Z,20.80
2022-10-15T15:46:15.587Z,20.80
2022-10-15T15:48:42.857Z,20.80
2022-10-15T15:51:26.668Z,20.70
2022-10-15T15:53:53.957Z,20.70
2022-10-15T15:56:21.627Z,20.70
2022-10-15T15:58:50.509Z,20.70
2022-10-15T16:01:19.193Z,20.70
2022-10-15T16:03:46.667Z,20.70
2022-10-15T16:06:14.204Z,20.70
2022-10-15T16:08:41.526Z,20.60
2022-10-15T16:11:08.718Z,20.60
2022-10-15T16:13:36.242Z,20.60
2022-10-15T16:16:04.053Z,20.50
2022-10-15T16:18:31.364Z,20.50
2022-10-15T16:20:58.773Z,20.50
2022-10-15T16:23:26.224Z,20.50
2022-10-15T16:25:54.780Z,20.50
2022-10-15T16:28:22.248Z,20.50
2022-10-15T16:30:49.972Z,20.50
2022-10-15T16:33:17.996Z,20.40
2022-10-15T16:35:50.862Z,20.50
2022-10-15T16:38:18.206Z,20.50
2022-10-15T16:40:47.655Z,20.50
2022-10-15T16:43:15.094Z,20.50
2022-10-15T16:45:42.463Z,20.50
2022-10-15T16:48:09.912Z,20.50
2022-10-15T16:50:37.313Z,20.50
2022-10-15T16:53:04.882Z,20.40
2022-10-15T16:55:32.568Z,20.40
2022-10-15T16:57:59.972Z,20.40
2022-10-15T17:00:27.343Z,20.40
2022-10-15T17:02:55.292Z,20.30
2022-10-15T17:05:22.945Z,20.40
2022-10-15T17:07:50.265Z,20.40
2022-10-15T17:10:17.693Z,20.30
2022-10-15T17:12:45.304Z,20.30
2022-10-15T17:15:12.633Z,20.30
2022-10-15T17:17:41.072Z,20.20
2022-10-15T17:20:09.500Z,20.20
2022-10-15T17:22:37.845Z,20.20
2022-10-15T17:25:05.582Z,20.20
2022-10-15T17:27:34.263Z,20.20
2022-10-15T17:30:01.684Z,20.10
2022-10-15T17:32:29.193Z,20.10
2022-10-15T17:34:59.103Z,20.00
2022-10-15T17:37:30.334Z,20.00
2022-10-15T17:39:58.411Z,20.10
2022-10-15T17:42:26.040Z,20.10
2022-10-15T17:44:53.513Z,20.10
2022-10-15T17:47:20.961Z,20.00
2022-10-15T17:49:48.253Z,19.90
2022-10-15T17:52:16.453Z,19.90
2022-10-15T17:54:44.823Z,19.80
2022-10-15T17:57:12.171Z,19.80
2022-10-15T17:59:39.713Z,19.80
2022-10-15T18:02:07.266Z,19.70
2022-10-15T18:04:39.984Z,19.70
2022-10-15T18:07:07.914Z,19.60
2022-10-15T18:09:35.902Z,19.60
2022-10-15T18:12:03.615Z,19.60
2022-10-15T18:14:33.716Z,19.60
2022-10-15T18:17:01.634Z,19.50
2022-10-15T18:19:29.119Z,19.50
2022-10-15T18:21:56.943Z,19.50
2022-10-15T18:24:24.745Z,19.50
2022-10-15T18:26:52.997Z,19.50
2022-10-15T18:29:20.923Z,19.50
2022-10-15T18:31:52.172Z,19.50
2022-10-15T18:34:22.683Z,19.50
2022-10-15T18:36:50.133Z,19.40
2022-10-15T18:39:17.483Z,19.40
2022-10-15T18:41:45.536Z,19.30
2022-10-15T18:44:16.242Z,19.30
2022-10-15T18:46:45.202Z,19.30
2022-10-15T18:49:14.494Z,19.30
2022-10-15T18:51:42.133Z,19.30
2022-10-15T18:54:11.131Z,19.30
2022-10-15T18:56:39.085Z,19.40
2022-10-15T18:59:06.522Z,19.40
2022-10-15T19:01:39.289Z,19.40
2022-10-15T19:04:10.573Z,19.40
2022-10-15T19:06:41.002Z,19.30
2022-10-15T19:09:17.862Z,19.30
2022-10-15T19:11:47.433Z,19.30
2022-10-15T19:14:18.183Z,19.30
2022-10-15T19:16:47.072Z,19.40
2022-10-15T19:19:18.722Z,19.40
2022-10-15T19:21:47.956Z,19.50
2022-10-15T19:24:17.034Z,19.40
2022-10-15T19:26:45.313Z,19.40
2022-10-15T19:29:13.043Z,19.40
2022-10-15T19:31:43.313Z,19.40
2022-10-15T19:34:11.633Z,19.30
2022-10-15T19:36:41.495Z,19.20
2022-10-15T19:39:15.472Z,19.20
2022-10-15T19:41:44.827Z,19.20
2022-10-15T19:44:14.543Z,19.20
2022-10-15T19:46:41.993Z,19.10
2022-10-15T19:49:11.865Z,19.10
2022-10-15T19:51:39.712Z,19.10
2022-10-15T19:54:07.133Z,19.10
2022-10-15T19:56:34.794Z,19.10
2022-10-15T19:59:04.414Z,19.20
2022-10-15T20:01:31.847Z,19.10
2022-10-15T20:04:04.756Z,19.10
2022-10-15T20:06:34.802Z,19.00
2022-10-15T20:09:02.385Z,19.10
2022-10-15T20:11:30.862Z,19.00
2022-10-15T20:13:59.960Z,19.00
2022-10-15T20:16:28.762Z,19.00
2022-10-15T20:19:00.601Z,19.00
2022-10-15T20:21:27.883Z,19.10
2022-10-15T20:23:55.342Z,19.00
2022-10-15T20:26:24.043Z,19.00
2022-10-15T20:28:51.503Z,19.00
2022-10-15T20:31:28.742Z,19.00
2022-10-15T20:33:56.183Z,19.10
2022-10-15T20:36:25.993Z,19.10
2022-10-15T20:38:53.732Z,19.10
2022-10-15T20:41:21.012Z,19.10
2022-10-15T20:43:54.303Z,19.10
2022-10-15T20:46:26.673Z,19.10
2022-10-15T20:48:57.163Z,19.10
2022-10-15T20:51:28.508Z,19.10
2022-10-15T20:53:58.142Z,19.10
2022-10-15T20:56:25.502Z,19.10
2022-10-15T20:58:52.822Z,19.00
2022-10-15T21:01:20.333Z,19.10
2022-10-15T21:03:47.722Z,19.10
2022-10-15T21:06:15.020Z,19.10
2022-10-15T21:08:42.422Z,19.20
2022-10-15T21:11:09.922Z,19.10
2022-10-15T21:13:37.374Z,19.10
2022-10-15T21:16:06.662Z,19.10
2022-10-15T21:18:35.733Z,19.00
2022-10-15T21:21:14.562Z,19.00
2022-10-15T21:23:42.982Z,18.90
2022-10-15T21:26:15.722Z,18.80
2022-10-15T21:28:43.963Z,18.90
2022-10-15T21:31:16.769Z,18.90
2022-10-15T21:33:44.962Z,18.90
2022-10-15T21:36:15.573Z,19.00
2022-10-15T21:38:42.982Z,19.00
2022-10-15T21:41:10.957Z,19.00
2022-10-15T21:43:38.376Z,19.00
2022-10-15T21:46:11.512Z,19.00
2022-10-15T21:48:40.383Z,19.00
2022-10-15T21:51:13.649Z,19.00
2022-10-15T21:53:41.411Z,19.00
2022-10-15T21:56:09.850Z,19.00
2022-10-15T21:58:38.284Z,19.10
2022-10-15T22:01:19.276Z,19.10
2022-10-15T22:03:47.753Z,19.10
2022-10-15T22:06:15.522Z,19.00
2022-10-15T22:13:57.241Z,18.90
2022-10-15T22:16:26.986Z,18.90
2022-10-15T22:18:55.527Z,18.90
2022-10-15T22:21:28.486Z,18.90
2022-10-15T22:23:58.516Z,18.90
2022-10-15T22:26:29.407Z,18.80
2022-10-15T22:28:59.128Z,18.80
2022-10-15T22:31:27.103Z,18.90
2022-10-15T22:33:55.035Z,18.90
2022-10-15T22:36:25.080Z,18.90
2022-10-15T22:38:58.976Z,19.00
2022-10-15T22:41:28.775Z,19.00
2022-10-15T22:43:56.055Z,19.00
2022-10-15T22:46:23.457Z,19.00
2022-10-15T22:48:50.835Z,19.00
2022-10-15T22:51:18.394Z,19.00
2022-10-15T22:53:45.846Z,18.90
2022-10-15T22:56:18.424Z,19.00
2022-10-15T22:58:46.444Z,18.90
2022-10-15T23:01:22.954Z,18.90
2022-10-15T23:03:53.405Z,18.90
2022-10-15T23:06:21.246Z,18.80
2022-10-15T23:08:49.355Z,18.80
2022-10-15T23:11:28.898Z,18.80
2022-10-15T23:14:00.635Z,18.90
2022-10-15T23:16:30.805Z,18.90
2022-10-15T23:19:03.825Z,18.90
2022-10-15T23:21:57.968Z,18.80
2022-10-15T23:24:26.935Z,18.80
2022-10-15T23:26:54.316Z,18.60
2022-10-15T23:29:24.055Z,18.50
2022-10-15T23:31:52.180Z,18.40
2022-10-15T23:34:24.756Z,18.30
2022-10-15T23:36:53.125Z,18.20
2022-10-15T23:39:26.470Z,18.20
2022-10-15T23:41:55.026Z,18.30
2022-10-15T23:44:25.753Z,18.40
2022-10-15T23:46:53.384Z,18.40
2022-10-15T23:49:20.785Z,18.40
2022-10-15T23:51:48.278Z,18.40
2022-10-15T23:54:18.442Z,18.40
2022-10-15T23:56:47.256Z,18.30
2022-10-15T23:59:14.857Z,18.30
